createdAt,value
2019-05-09T00:00:30.867Z,9.13
2019-05-09T00:03:44.097Z,8.53
2019-05-09T00:06:14.426Z,8.67
2019-05-09T00:08:45.315Z,9.17
2019-05-09T00:11:16.598Z,9.60
2019-05-09T00:13:47.863Z,8.77
2019-05-09T00:16:18.862Z,8.27
2019-05-09T00:18:49.850Z,7.70
2019-05-09T00:21:26.127Z,8.43
2019-05-09T00:23:57.280Z,7.73
2019-05-09T00:26:28.618Z,8.77
2019-05-09T00:29:03.880Z,7.57
2019-05-09T00:32:07.047Z,8.47
2019-05-09T00:34:54.158Z,8.00
2019-05-09T00:37:43.230Z,7.83
2019-05-09T00:40:14.468Z,8.03
2019-05-09T00:42:45.474Z,7.63
2019-05-09T00:45:25.154Z,8.00
2019-05-09T00:47:56.363Z,8.70
2019-05-09T00:50:29.582Z,7.60
2019-05-09T00:53:00.350Z,8.37
2019-05-09T00:55:33.265Z,7.47
2019-05-09T00:58:04.479Z,7.53
2019-05-09T01:00:35.414Z,6.70
2019-05-09T01:03:06.654Z,7.53
2019-05-09T01:05:37.614Z,7.47
2019-05-09T01:08:08.911Z,7.77
2019-05-09T01:10:39.803Z,7.90
2019-05-09T01:13:10.951Z,7.40
2019-05-09T01:15:44.015Z,7.60
2019-05-09T01:18:15.170Z,7.73
2019-05-09T01:20:46.394Z,8.60
2019-05-09T01:23:17.662Z,7.77
2019-05-09T01:25:48.830Z,8.97
2019-05-09T01:28:19.778Z,8.80
2019-05-09T01:30:53.089Z,9.47
2019-05-09T01:33:43.963Z,9.17
2019-05-09T01:36:15.050Z,9.43
2019-05-09T01:38:46.179Z,9.20
2019-05-09T01:41:27.848Z,9.37
2019-05-09T01:43:50.742Z,10.20
2019-05-09T01:46:23.593Z,10.43
2019-05-09T01:48:54.603Z,10.57
2019-05-09T01:51:25.691Z,11.23
2019-05-09T01:53:57.390Z,10.87
2019-05-09T01:56:28.403Z,11.70
2019-05-09T01:58:59.799Z,11.67
2019-05-09T02:01:30.690Z,11.63
2019-05-09T02:04:03.619Z,12.23
2019-05-09T02:06:34.482Z,12.17
2019-05-09T02:09:07.871Z,12.90
2019-05-09T02:11:42.681Z,13.70
2019-05-09T02:14:14.707Z,13.87
2019-05-09T02:16:55.737Z,14.20
2019-05-09T02:19:45.122Z,14.70
2019-05-09T02:22:35.872Z,15.10
2019-05-09T02:25:08.798Z,15.37
2019-05-09T02:27:40.170Z,15.57
2019-05-09T02:30:15.179Z,15.93
2019-05-09T02:32:45.936Z,16.87
2019-05-09T02:35:17.477Z,16.73
2019-05-09T02:37:49.839Z,15.93
2019-05-09T02:40:21.290Z,17.00
2019-05-09T02:42:52.380Z,17.00
2019-05-09T02:45:28.444Z,17.83
2019-05-09T02:47:59.115Z,18.77
2019-05-09T02:50:30.396Z,18.60
2019-05-09T02:53:02.202Z,19.20
2019-05-09T02:55:33.615Z,19.47
2019-05-09T02:58:08.275Z,19.73
2019-05-09T03:01:03.988Z,18.03
2019-05-09T03:03:39.296Z,19.77
2019-05-09T03:06:10.210Z,18.57
2019-05-09T03:08:41.255Z,20.27
2019-05-09T03:11:12.790Z,18.87
2019-05-09T03:13:43.886Z,20.30
2019-05-09T03:16:18.977Z,21.33
2019-05-09T03:18:49.593Z,20.47
2019-05-09T03:21:49.320Z,20.27
2019-05-09T03:24:20.388Z,22.20
2019-05-09T03:26:59.297Z,20.13
2019-05-09T03:29:51.291Z,20.60
2019-05-09T03:32:22.479Z,20.70
2019-05-09T03:34:53.610Z,20.83
2019-05-09T03:37:25.123Z,19.87
2019-05-09T03:39:58.118Z,22.20
2019-05-09T03:42:38.081Z,20.20
2019-05-09T03:45:02.039Z,19.47
2019-05-09T03:47:41.222Z,19.03
2019-05-09T03:50:14.488Z,20.47
2019-05-09T03:52:47.616Z,20.40
2019-05-09T03:55:23.246Z,19.63
2019-05-09T03:58:02.800Z,20.60
2019-05-09T04:00:34.906Z,19.50
2019-05-09T04:03:08.138Z,19.13
2019-05-09T04:05:39.016Z,19.97
2019-05-09T04:08:19.949Z,19.63
2019-05-09T04:10:52.595Z,20.40
2019-05-09T04:13:31.764Z,20.20
2019-05-09T04:16:02.966Z,19.77
2019-05-09T04:18:34.134Z,19.40
2019-05-09T04:21:05.264Z,19.43
2019-05-09T04:23:37.903Z,18.23
2019-05-09T04:26:22.225Z,17.83
2019-05-09T04:28:53.286Z,20.20
2019-05-09T04:31:24.503Z,21.03
2019-05-09T04:33:57.461Z,21.03
2019-05-09T04:36:41.115Z,21.30
2019-05-09T04:39:20.877Z,20.57
2019-05-09T04:41:49.108Z,21.50
2019-05-09T04:44:34.606Z,19.97
2019-05-09T04:47:05.409Z,22.00
2019-05-09T04:49:40.937Z,21.17
2019-05-09T04:52:09.375Z,21.03
2019-05-09T04:54:40.463Z,22.10
2019-05-09T04:57:11.674Z,21.33
2019-05-09T04:59:43.006Z,21.73
2019-05-09T05:02:48.528Z,21.47
2019-05-09T05:05:19.810Z,21.10
2019-05-09T05:07:50.786Z,21.30
2019-05-09T05:10:22.102Z,20.40
2019-05-09T05:12:53.073Z,20.97
2019-05-09T05:15:24.180Z,21.07
2019-05-09T05:17:55.474Z,21.30
2019-05-09T05:20:28.395Z,21.10
2019-05-09T05:23:21.706Z,19.03
2019-05-09T05:25:52.774Z,19.20
2019-05-09T05:28:23.899Z,20.10
2019-05-09T05:30:55.447Z,20.53
2019-05-09T05:33:53.061Z,20.37
2019-05-09T05:36:21.247Z,21.13
2019-05-09T05:38:52.465Z,19.20
2019-05-09T05:41:23.875Z,19.00
2019-05-09T05:43:55.215Z,19.33
2019-05-09T05:46:55.459Z,19.73
2019-05-09T05:49:27.941Z,18.63
2019-05-09T05:51:59.189Z,19.57
2019-05-09T05:54:30.739Z,19.13
2019-05-09T05:57:01.883Z,18.77
2019-05-09T05:59:32.943Z,18.03
2019-05-09T06:02:04.027Z,17.60
2019-05-09T06:04:37.910Z,18.80
2019-05-09T06:07:08.531Z,18.40
2019-05-09T06:09:39.677Z,19.40
2019-05-09T06:12:11.513Z,19.43
2019-05-09T06:14:42.760Z,18.10
2019-05-09T06:17:13.863Z,19.13
2019-05-09T06:19:45.019Z,20.83
2019-05-09T06:22:18.145Z,18.17
2019-05-09T06:24:49.887Z,18.63
2019-05-09T06:27:21.035Z,19.00
2019-05-09T06:29:52.179Z,19.40
2019-05-09T06:32:23.472Z,19.07
2019-05-09T06:34:54.646Z,18.23
2019-05-09T06:37:27.601Z,19.70
2019-05-09T06:39:58.503Z,19.43
2019-05-09T06:42:30.563Z,19.83
2019-05-09T06:45:27.414Z,19.40
2019-05-09T06:48:00.366Z,19.33
2019-05-09T06:50:31.683Z,20.30
2019-05-09T06:53:03.179Z,20.03
2019-05-09T06:55:34.403Z,19.40
2019-05-09T06:58:23.414Z,19.93
2019-05-09T07:01:00.938Z,20.03
2019-05-09T07:03:32.270Z,19.63
2019-05-09T07:06:10.506Z,20.33
2019-05-09T07:08:59.643Z,19.83
2019-05-09T07:11:30.909Z,20.93
2019-05-09T07:14:01.977Z,20.80
2019-05-09T07:16:33.122Z,19.43
2019-05-09T07:19:04.078Z,19.93
2019-05-09T07:21:52.859Z,20.30
2019-05-09T07:24:23.929Z,19.63
2019-05-09T07:26:54.966Z,19.27
2019-05-09T07:29:28.362Z,17.63
2019-05-09T07:32:09.116Z,18.67
2019-05-09T07:34:44.886Z,19.80
2019-05-09T07:37:18.483Z,20.33
2019-05-09T07:39:49.078Z,20.17
2019-05-09T07:42:20.410Z,19.13
2019-05-09T07:44:52.583Z,17.53
2019-05-09T07:47:23.642Z,19.00
2019-05-09T07:49:54.982Z,19.00
2019-05-09T07:52:28.347Z,19.83
2019-05-09T07:54:59.031Z,18.67
2019-05-09T07:57:30.019Z,19.83
2019-05-09T08:00:01.215Z,19.43
2019-05-09T08:02:32.991Z,20.00
2019-05-09T08:05:04.184Z,20.33
2019-05-09T08:07:35.198Z,20.00
2019-05-09T08:10:08.827Z,18.23
2019-05-09T08:12:39.268Z,20.73
2019-05-09T08:15:16.516Z,19.47
2019-05-09T08:17:44.086Z,20.83
2019-05-09T08:20:17.398Z,20.23
2019-05-09T08:22:57.446Z,19.83
2019-05-09T08:25:20.853Z,20.20
2019-05-09T08:27:52.126Z,18.97
2019-05-09T08:30:23.576Z,19.87
2019-05-09T08:32:54.991Z,20.67
2019-05-09T08:35:27.952Z,19.90
2019-05-09T08:37:59.455Z,21.50
2019-05-09T08:40:30.667Z,20.43
2019-05-09T08:43:02.047Z,20.10
2019-05-09T08:45:33.490Z,17.90
2019-05-09T08:48:04.691Z,20.53
2019-05-09T08:50:40.247Z,18.63
2019-05-09T08:53:11.325Z,20.33
2019-05-09T08:55:42.235Z,20.87
2019-05-09T08:58:13.445Z,20.13
2019-05-09T09:00:44.667Z,21.40
2019-05-09T09:03:18.338Z,21.90
2019-05-09T09:05:48.756Z,21.13
2019-05-09T09:08:20.087Z,22.40
2019-05-09T09:10:51.258Z,21.13
2019-05-09T09:13:22.435Z,22.73
2019-05-09T09:16:08.241Z,22.37
2019-05-09T09:18:28.289Z,22.93
2019-05-09T09:20:59.347Z,20.93
2019-05-09T09:23:43.211Z,21.37
2019-05-09T09:26:03.486Z,21.17
2019-05-09T09:28:37.356Z,21.77
2019-05-09T09:31:08.429Z,23.37
2019-05-09T09:33:39.660Z,23.17
2019-05-09T09:36:11.427Z,23.47
2019-05-09T09:38:42.514Z,23.83
2019-05-09T09:41:13.814Z,23.33
2019-05-09T09:43:44.894Z,23.90
2019-05-09T09:46:18.146Z,25.17
2019-05-09T09:48:49.086Z,26.00
2019-05-09T09:51:20.213Z,26.70
2019-05-09T09:53:51.257Z,26.40
2019-05-09T09:56:22.690Z,25.77
2019-05-09T09:59:15.688Z,27.33
2019-05-09T10:01:47.845Z,26.50
2019-05-09T10:04:23.854Z,26.93
2019-05-09T10:06:53.071Z,26.27
2019-05-09T10:09:25.211Z,28.37
2019-05-09T10:12:00.063Z,27.03
2019-05-09T10:14:33.312Z,33.07
2019-05-09T10:17:32.818Z,30.17
2019-05-09T10:20:29.267Z,29.33
2019-05-09T10:23:11.004Z,30.93
2019-05-09T10:25:33.723Z,31.77
2019-05-09T10:28:05.419Z,31.23
2019-05-09T10:30:38.287Z,31.00
2019-05-09T10:33:09.482Z,30.47
2019-05-09T10:35:40.739Z,29.70
2019-05-09T10:38:11.982Z,29.83
2019-05-09T10:40:43.075Z,30.27
2019-05-09T10:43:37.998Z,31.63
2019-05-09T10:46:14.981Z,30.47
2019-05-09T10:48:47.895Z,31.43
2019-05-09T10:51:19.330Z,31.93
2019-05-09T10:53:50.592Z,29.87
2019-05-09T10:56:22.955Z,32.43
2019-05-09T10:58:54.338Z,31.87
2019-05-09T11:01:25.543Z,32.43
2019-05-09T11:03:58.960Z,29.53
2019-05-09T11:06:29.150Z,32.33
2019-05-09T11:09:00.343Z,33.57
2019-05-09T11:11:31.184Z,33.57
2019-05-09T11:14:02.167Z,31.17
2019-05-09T11:16:45.563Z,33.93
2019-05-09T11:19:08.002Z,34.10
2019-05-09T11:21:39.504Z,31.83
2019-05-09T11:24:10.566Z,33.53
2019-05-09T11:26:41.771Z,34.03
2019-05-09T11:29:12.867Z,33.23
2019-05-09T11:31:44.394Z,32.73
2019-05-09T11:34:15.630Z,32.83
2019-05-09T11:36:46.591Z,32.43
2019-05-09T11:39:35.179Z,31.47
2019-05-09T11:41:50.698Z,32.07
2019-05-09T11:44:21.907Z,32.20
2019-05-09T11:46:53.046Z,31.97
2019-05-09T11:49:24.867Z,33.07
2019-05-09T11:51:57.706Z,31.50
2019-05-09T11:54:29.031Z,31.00
2019-05-09T11:57:00.370Z,30.67
2019-05-09T11:59:32.484Z,32.33
2019-05-09T12:02:03.760Z,31.77
2019-05-09T12:04:34.794Z,28.50
2019-05-09T12:07:07.904Z,30.50
2019-05-09T12:09:39.483Z,27.97
2019-05-09T12:12:11.079Z,30.10
2019-05-09T12:14:42.315Z,28.13
2019-05-09T12:17:14.454Z,28.40
2019-05-09T12:19:48.745Z,27.33
2019-05-09T12:22:19.256Z,27.57
2019-05-09T12:24:53.573Z,28.33
2019-05-09T12:27:23.299Z,27.20
2019-05-09T12:29:54.798Z,28.17
2019-05-09T12:32:28.527Z,26.57
2019-05-09T12:34:59.069Z,26.37
2019-05-09T12:37:30.791Z,24.97
2019-05-09T12:40:02.063Z,25.90
2019-05-09T12:42:33.775Z,23.70
2019-05-09T12:45:05.280Z,25.17
2019-05-09T12:47:39.461Z,24.97
2019-05-09T12:50:09.839Z,23.43
2019-05-09T12:52:40.958Z,22.13
2019-05-09T12:55:13.139Z,24.60
2019-05-09T12:57:44.649Z,28.80
2019-05-09T13:00:18.462Z,23.20
2019-05-09T13:02:49.413Z,20.63
2019-05-09T13:05:21.386Z,18.50
2019-05-09T13:07:52.550Z,18.00
2019-05-09T13:10:23.795Z,18.77
2019-05-09T13:12:55.452Z,17.70
2019-05-09T13:15:34.023Z,15.73
2019-05-09T13:18:05.303Z,14.87
2019-05-09T13:20:38.202Z,15.63
2019-05-09T13:23:09.310Z,15.47
2019-05-09T13:25:41.014Z,13.83
2019-05-09T13:28:13.403Z,14.73
2019-05-09T13:30:44.835Z,15.13
2019-05-09T13:33:18.767Z,16.83
2019-05-09T13:35:49.720Z,13.37
2019-05-09T13:38:20.831Z,14.70
2019-05-09T13:40:53.436Z,12.90
2019-05-09T13:43:27.929Z,11.50
2019-05-09T13:45:59.303Z,11.07
2019-05-09T13:48:56.299Z,10.77
2019-05-09T13:51:07.565Z,12.10
2019-05-09T13:53:38.784Z,11.20
2019-05-09T13:56:10.307Z,11.27
2019-05-09T13:58:41.524Z,11.70
2019-05-09T14:01:12.838Z,10.23
2019-05-09T14:03:44.087Z,10.37
2019-05-09T14:06:16.032Z,10.57
2019-05-09T14:08:48.934Z,9.57
2019-05-09T14:11:20.259Z,9.73
2019-05-09T14:13:52.012Z,9.23
2019-05-09T14:16:23.076Z,9.60
2019-05-09T14:18:56.593Z,8.53
2019-05-09T14:21:29.780Z,8.00
2019-05-09T14:24:11.336Z,20.47
2019-05-09T14:26:34.203Z,10.00
2019-05-09T14:29:05.344Z,8.93
2019-05-09T14:31:38.757Z,10.40
2019-05-09T14:34:09.202Z,10.03
2019-05-09T14:36:45.397Z,9.17
2019-05-09T14:39:13.090Z,9.43
2019-05-09T14:41:47.063Z,9.20
2019-05-09T14:44:18.153Z,9.97
2019-05-09T14:46:49.446Z,10.13
2019-05-09T14:49:20.887Z,10.00
2019-05-09T14:51:52.504Z,9.33
2019-05-09T14:54:23.957Z,11.47
2019-05-09T14:56:55.131Z,12.40
2019-05-09T14:59:28.615Z,12.10
2019-05-09T15:01:59.371Z,11.73
2019-05-09T15:04:30.878Z,11.57
2019-05-09T15:07:03.083Z,12.40
2019-05-09T15:09:34.379Z,12.97
2019-05-09T15:12:05.619Z,12.37
2019-05-09T15:14:38.308Z,12.87
2019-05-09T15:17:09.421Z,12.53
2019-05-09T15:19:55.295Z,10.20
2019-05-09T15:22:13.413Z,12.80
2019-05-09T15:24:44.535Z,11.37
2019-05-09T15:27:17.712Z,11.63
2019-05-09T15:29:49.020Z,12.10
2019-05-09T15:32:20.331Z,11.63
2019-05-09T15:34:51.867Z,10.70
2019-05-09T15:37:23.123Z,10.57
2019-05-09T15:39:54.288Z,11.73
2019-05-09T15:42:26.163Z,11.27
2019-05-09T15:44:58.929Z,10.50
2019-05-09T15:47:33.772Z,11.07
2019-05-09T15:50:18.479Z,10.50
2019-05-09T15:52:38.947Z,9.93
2019-05-09T15:55:11.344Z,10.17
2019-05-09T15:57:43.683Z,8.37
2019-05-09T16:00:15.393Z,9.20
2019-05-09T16:02:48.481Z,8.23
2019-05-09T16:05:20.531Z,9.33
2019-05-09T16:07:51.935Z,9.23
2019-05-09T16:10:24.294Z,9.37
2019-05-09T16:12:55.559Z,9.70
2019-05-09T16:15:28.479Z,9.60
2019-05-09T16:17:59.526Z,9.43
2019-05-09T16:20:37.589Z,9.50
2019-05-09T16:23:03.972Z,8.17
2019-05-09T16:25:35.083Z,9.83
2019-05-09T16:28:08.018Z,9.60
2019-05-09T16:30:39.110Z,8.70
2019-05-09T16:33:10.754Z,10.47
2019-05-09T16:35:41.903Z,10.20
2019-05-09T16:38:13.139Z,10.67
2019-05-09T16:40:44.223Z,10.70
2019-05-09T16:43:17.638Z,11.20
2019-05-09T16:45:49.155Z,10.70
2019-05-09T16:48:20.847Z,9.90
2019-05-09T16:51:03.877Z,11.10
2019-05-09T16:53:27.810Z,10.50
2019-05-09T16:55:59.308Z,11.13
2019-05-09T16:58:30.666Z,10.90
2019-05-09T17:01:01.804Z,11.17
2019-05-09T17:03:32.986Z,10.33
2019-05-09T17:06:04.301Z,10.67
2019-05-09T17:08:35.435Z,9.60
2019-05-09T17:11:07.725Z,9.90
2019-05-09T17:13:39.356Z,10.27
2019-05-09T17:16:11.068Z,9.10
2019-05-09T17:18:42.427Z,10.47
2019-05-09T17:21:31.954Z,10.90
2019-05-09T17:24:04.929Z,10.93
2019-05-09T17:26:37.911Z,10.37
2019-05-09T17:29:09.067Z,12.03
2019-05-09T17:31:40.202Z,11.30
2019-05-09T17:34:11.959Z,12.17
2019-05-09T17:36:43.722Z,12.47
2019-05-09T17:39:14.811Z,12.70
2019-05-09T17:41:46.110Z,11.20
2019-05-09T17:44:18.612Z,11.43
2019-05-09T17:46:49.886Z,11.67
2019-05-09T17:49:21.983Z,10.57
2019-05-09T17:51:53.046Z,11.83
2019-05-09T17:54:24.278Z,12.87
2019-05-09T17:56:57.273Z,11.00
2019-05-09T17:59:29.511Z,9.63
2019-05-09T18:02:01.622Z,10.80
2019-05-09T18:04:32.875Z,10.00
2019-05-09T18:07:05.288Z,10.03
2019-05-09T18:09:36.339Z,9.53
2019-05-09T18:12:08.316Z,9.37
2019-05-09T18:14:39.907Z,9.13
2019-05-09T18:17:11.739Z,8.93
2019-05-09T18:19:43.531Z,7.97
2019-05-09T18:22:15.009Z,7.87
2019-05-09T18:24:48.245Z,6.80
2019-05-09T18:27:19.121Z,6.30
2019-05-09T18:29:50.914Z,6.30
2019-05-09T18:32:41.119Z,5.73
2019-05-09T18:35:15.967Z,5.90
2019-05-09T18:37:48.087Z,5.73
2019-05-09T18:40:20.874Z,5.90
2019-05-09T18:42:52.440Z,5.37
2019-05-09T18:45:24.510Z,4.40
2019-05-09T18:47:57.826Z,4.87
2019-05-09T18:50:28.392Z,5.07
2019-05-09T18:53:00.108Z,6.33
2019-05-09T18:55:31.299Z,6.00
2019-05-09T18:58:02.507Z,5.23
2019-05-09T19:00:34.186Z,6.27
2019-05-09T19:03:05.640Z,6.23
2019-05-09T19:05:37.218Z,7.03
2019-05-09T19:08:08.971Z,6.90
2019-05-09T19:10:41.327Z,7.00
2019-05-09T19:13:12.291Z,7.57
2019-05-09T19:16:01.027Z,7.00
2019-05-09T19:18:49.911Z,7.50
2019-05-09T19:21:25.062Z,7.73
2019-05-09T19:23:56.303Z,7.80
2019-05-09T19:26:36.391Z,8.70
2019-05-09T19:29:09.912Z,8.20
2019-05-09T19:31:41.550Z,8.67
2019-05-09T19:34:12.746Z,7.57
2019-05-09T19:36:43.907Z,6.23
2019-05-09T19:39:15.358Z,6.83
2019-05-09T19:41:46.839Z,6.30
2019-05-09T19:44:17.999Z,6.90
2019-05-09T19:46:49.135Z,7.37
2019-05-09T19:49:20.280Z,8.30
2019-05-09T19:51:52.007Z,8.47
2019-05-09T19:54:23.512Z,8.37
2019-05-09T19:56:55.618Z,9.10
2019-05-09T19:59:28.235Z,8.87
2019-05-09T20:01:59.374Z,8.77
2019-05-09T20:04:30.506Z,9.63
2019-05-09T20:07:01.491Z,9.67
2019-05-09T20:09:51.440Z,8.77
2019-05-09T20:12:29.658Z,9.20
2019-05-09T20:15:00.839Z,8.90
2019-05-09T20:17:32.304Z,8.33
2019-05-09T20:20:03.933Z,6.60
2019-05-09T20:22:35.102Z,8.33
2019-05-09T20:25:06.364Z,8.90
2019-05-09T20:27:37.650Z,7.87
2019-05-09T20:30:09.327Z,9.60
2019-05-09T20:32:40.655Z,8.97
2019-05-09T20:35:12.050Z,9.23
2019-05-09T20:37:43.685Z,9.37
2019-05-09T20:40:33.580Z,8.73
2019-05-09T20:43:06.691Z,10.27
2019-05-09T20:45:38.575Z,9.70
2019-05-09T20:48:10.299Z,8.80
2019-05-09T20:50:44.437Z,10.60
2019-05-09T20:53:15.418Z,9.53
2019-05-09T20:55:46.834Z,8.47
2019-05-09T20:58:18.181Z,9.33
2019-05-09T21:00:49.785Z,7.63
2019-05-09T21:03:21.127Z,7.43
2019-05-09T21:05:52.725Z,8.03
2019-05-09T21:08:24.252Z,6.37
2019-05-09T21:10:55.537Z,6.20
2019-05-09T21:13:26.719Z,7.20
2019-05-09T21:15:58.091Z,5.93
2019-05-09T21:18:29.717Z,7.07
2019-05-09T21:21:02.349Z,7.23
2019-05-09T21:23:34.007Z,6.97
2019-05-09T21:26:05.687Z,6.47
2019-05-09T21:28:37.243Z,6.87
2019-05-09T21:31:09.419Z,7.27
2019-05-09T21:33:40.739Z,6.10
2019-05-09T21:36:12.119Z,7.50
2019-05-09T21:38:43.209Z,6.17
2019-05-09T21:41:14.327Z,6.80
2019-05-09T21:43:45.259Z,7.37
2019-05-09T21:46:16.315Z,7.03
2019-05-09T21:48:47.280Z,8.10
2019-05-09T21:51:18.511Z,8.20
2019-05-09T21:53:49.804Z,8.13
2019-05-09T21:56:21.963Z,6.63
2019-05-09T21:58:52.859Z,6.83
2019-05-09T22:01:24.510Z,7.90
2019-05-09T22:03:55.743Z,8.20
2019-05-09T22:06:27.270Z,8.50
2019-05-09T22:08:58.722Z,8.13
2019-05-09T22:11:29.894Z,6.30
2019-05-09T22:14:01.078Z,5.13
2019-05-09T22:16:32.511Z,6.77
2019-05-09T22:19:03.899Z,6.97
2019-05-09T22:21:34.904Z,5.30
2019-05-09T22:24:06.211Z,7.53
2019-05-09T22:26:37.452Z,7.50
2019-05-09T22:29:08.306Z,6.67
2019-05-09T22:31:39.889Z,6.00
2019-05-09T22:34:10.931Z,7.20
2019-05-09T22:36:42.023Z,7.30
2019-05-09T22:39:13.367Z,6.90
2019-05-09T22:41:44.479Z,6.27
2019-05-09T22:44:15.783Z,7.57
2019-05-09T22:46:47.046Z,8.80
2019-05-09T22:49:25.011Z,7.17
2019-05-09T22:51:56.086Z,7.20
2019-05-09T22:54:27.586Z,7.00
2019-05-09T22:56:59.316Z,8.20
2019-05-09T22:59:30.356Z,9.03
2019-05-09T23:02:06.481Z,7.83
2019-05-09T23:04:34.419Z,6.07
2019-05-09T23:07:05.370Z,7.03
2019-05-09T23:09:36.406Z,6.80
2019-05-09T23:12:07.234Z,5.63
2019-05-09T23:14:38.226Z,7.00
2019-05-09T23:17:10.019Z,5.87
2019-05-09T23:19:41.486Z,6.37
2019-05-09T23:22:12.538Z,7.63
2019-05-09T23:24:44.782Z,8.03
2019-05-09T23:27:17.982Z,7.27
2019-05-09T23:29:49.214Z,5.93
2019-05-09T23:32:39.222Z,6.57
2019-05-09T23:35:10.967Z,7.27
2019-05-09T23:37:42.066Z,7.17
2019-05-09T23:40:13.119Z,9.00
2019-05-09T23:42:44.243Z,10.20
2019-05-09T23:45:15.546Z,7.80
2019-05-09T23:47:46.622Z,10.03
2019-05-09T23:50:17.486Z,6.63
2019-05-09T23:52:48.618Z,8.33
2019-05-09T23:55:37.378Z,7.73
2019-05-09T23:58:26.036Z,11.20
